sensor_id;sensor_type;location;lat;lon;timestamp;P1;durP1;ratioP1;P2;durP2;ratioP2
22213;SDS011;11276;43.566;27.824;2022-10-31T00:00:46;26.40;;;14.77;;
22213;SDS011;11276;43.566;27.824;2022-10-31T00:03:13;28.33;;;14.50;;
22213;SDS011;11276;43.566;27.824;2022-10-31T00:05:40;26.83;;;13.43;;
22213;SDS011;11276;43.566;27.824;2022-10-31T00:08:08;26.00;;;14.10;;
22213;SDS011;11276;43.566;27.824;2022-10-31T00:10:37;24.73;;;13.20;;
22213;SDS011;11276;43.566;27.824;2022-10-31T00:13:08;27.27;;;13.37;;
22213;SDS011;11276;43.566;27.824;2022-10-31T00:15:36;23.30;;;12.30;;
22213;SDS011;11276;43.566;27.824;2022-10-31T00:18:04;23.67;;;12.43;;
22213;SDS011;11276;43.566;27.824;2022-10-31T00:20:31;19.50;;;11.70;;
22213;SDS011;11276;43.566;27.824;2022-10-31T00:23:02;21.90;;;12.57;;
22213;SDS011;11276;43.566;27.824;2022-10-31T00:25:32;21.97;;;12.93;;
22213;SDS011;11276;43.566;27.824;2022-10-31T00:28:01;26.50;;;12.70;;
22213;SDS011;11276;43.566;27.824;2022-10-31T00:30:28;22.03;;;12.70;;
22213;SDS011;11276;43.566;27.824;2022-10-31T00:32:54;27.83;;;13.20;;
22213;SDS011;11276;43.566;27.824;2022-10-31T00:35:21;24.10;;;12.37;;
22213;SDS011;11276;43.566;27.824;2022-10-31T00:37:48;27.43;;;11.60;;
22213;SDS011;11276;43.566;27.824;2022-10-31T00:40:14;25.17;;;12.53;;
22213;SDS011;11276;43.566;27.824;2022-10-31T00:42:41;21.73;;;11.97;;
22213;SDS011;11276;43.566;27.824;2022-10-31T00:45:09;23.80;;;12.83;;
22213;SDS011;11276;43.566;27.824;2022-10-31T00:47:36;32.67;;;12.93;;
22213;SDS011;11276;43.566;27.824;2022-10-31T00:50:04;18.37;;;10.80;;
22213;SDS011;11276;43.566;27.824;2022-10-31T00:52:31;29.47;;;13.83;;
22213;SDS011;11276;43.566;27.824;2022-10-31T00:54:58;22.03;;;11.83;;
22213;SDS011;11276;43.566;27.824;2022-10-31T00:57:25;24.60;;;12.47;;
22213;SDS011;11276;43.566;27.824;2022-10-31T00:59:51;22.40;;;11.47;;
22213;SDS011;11276;43.566;27.824;2022-10-31T01:02:18;27.63;;;13.37;;
22213;SDS011;11276;43.566;27.824;2022-10-31T01:04:45;22.17;;;11.60;;
22213;SDS011;11276;43.566;27.824;2022-10-31T01:07:12;16.43;;;9.87;;
22213;SDS011;11276;43.566;27.824;2022-10-31T01:09:40;23.63;;;11.60;;
22213;SDS011;11276;43.566;27.824;2022-10-31T01:12:07;29.43;;;11.37;;
22213;SDS011;11276;43.566;27.824;2022-10-31T01:14:34;17.40;;;10.13;;
22213;SDS011;11276;43.566;27.824;2022-10-31T01:17:01;24.80;;;11.40;;
22213;SDS011;11276;43.566;27.824;2022-10-31T01:19:27;24.13;;;11.70;;
22213;SDS011;11276;43.566;27.824;2022-10-31T01:21:54;26.53;;;9.97;;
22213;SDS011;11276;43.566;27.824;2022-10-31T01:24:21;24.10;;;10.60;;
22213;SDS011;11276;43.566;27.824;2022-10-31T01:26:48;17.17;;;10.47;;
22213;SDS011;11276;43.566;27.824;2022-10-31T01:29:15;21.60;;;11.27;;
22213;SDS011;11276;43.566;27.824;2022-10-31T01:31:41;21.90;;;10.50;;
22213;SDS011;11276;43.566;27.824;2022-10-31T01:34:10;20.80;;;11.43;;
22213;SDS011;11276;43.566;27.824;2022-10-31T01:36:39;28.73;;;11.77;;
22213;SDS011;11276;43.566;27.824;2022-10-31T01:39:07;27.87;;;11.60;;
22213;SDS011;11276;43.566;27.824;2022-10-31T01:41:39;36.43;;;12.80;;
22213;SDS011;11276;43.566;27.824;2022-10-31T01:49:12;32.83;;;12.80;;
22213;SDS011;11276;43.566;27.824;2022-10-31T01:51:45;33.97;;;13.77;;
22213;SDS011;11276;43.566;27.824;2022-10-31T01:54:34;42.00;;;12.60;;
22213;SDS011;11276;43.566;27.824;2022-10-31T01:57:06;42.80;;;12.37;;
22213;SDS011;11276;43.566;27.824;2022-10-31T01:59:36;44.53;;;13.43;;
22213;SDS011;11276;43.566;27.824;2022-10-31T02:02:09;34.50;;;12.40;;
22213;SDS011;11276;43.566;27.824;2022-10-31T02:04:37;36.27;;;12.50;;
22213;SDS011;11276;43.566;27.824;2022-10-31T02:07:09;30.20;;;12.50;;
22213;SDS011;11276;43.566;27.824;2022-10-31T02:09:40;37.93;;;12.67;;
22213;SDS011;11276;43.566;27.824;2022-10-31T02:12:07;35.27;;;12.37;;
22213;SDS011;11276;43.566;27.824;2022-10-31T02:14:36;25.47;;;11.63;;
22213;SDS011;11276;43.566;27.824;2022-10-31T02:17:04;35.93;;;11.70;;
22213;SDS011;11276;43.566;27.824;2022-10-31T02:19:35;25.37;;;11.20;;
22213;SDS011;11276;43.566;27.824;2022-10-31T02:22:41;22.47;;;11.33;;
22213;SDS011;11276;43.566;27.824;2022-10-31T02:33:44;31.93;;;11.50;;
22213;SDS011;11276;43.566;27.824;2022-10-31T02:36:21;24.93;;;11.80;;
22213;SDS011;11276;43.566;27.824;2022-10-31T02:41:35;55.60;;;12.63;;
22213;SDS011;11276;43.566;27.824;2022-10-31T02:44:17;25.87;;;11.37;;
22213;SDS011;11276;43.566;27.824;2022-10-31T02:52:29;27.27;;;11.40;;
22213;SDS011;11276;43.566;27.824;2022-10-31T02:54:58;31.17;;;10.70;;
22213;SDS011;11276;43.566;27.824;2022-10-31T02:57:34;30.30;;;11.70;;
22213;SDS011;11276;43.566;27.824;2022-10-31T03:00:04;22.70;;;11.10;;
22213;SDS011;11276;43.566;27.824;2022-10-31T03:11:02;29.67;;;11.70;;
22213;SDS011;11276;43.566;27.824;2022-10-31T03:13:34;25.37;;;11.40;;
22213;SDS011;11276;43.566;27.824;2022-10-31T03:16:26;25.93;;;12.43;;
22213;SDS011;11276;43.566;27.824;2022-10-31T03:21:55;21.57;;;11.73;;
22213;SDS011;11276;43.566;27.824;2022-10-31T03:24:24;22.50;;;10.57;;
22213;SDS011;11276;43.566;27.824;2022-10-31T03:26:57;19.33;;;11.60;;
22213;SDS011;11276;43.566;27.824;2022-10-31T03:29:27;29.30;;;12.00;;
22213;SDS011;11276;43.566;27.824;2022-10-31T03:31:59;27.70;;;12.20;;
22213;SDS011;11276;43.566;27.824;2022-10-31T03:34:47;21.20;;;11.40;;
22213;SDS011;11276;43.566;27.824;2022-10-31T03:37:17;26.90;;;12.37;;
22213;SDS011;11276;43.566;27.824;2022-10-31T03:39:45;22.50;;;10.53;;
22213;SDS011;11276;43.566;27.824;2022-10-31T03:42:18;23.70;;;12.40;;
22213;SDS011;11276;43.566;27.824;2022-10-31T03:44:52;34.80;;;12.83;;
22213;SDS011;11276;43.566;27.824;2022-10-31T03:47:25;22.07;;;11.83;;
22213;SDS011;11276;43.566;27.824;2022-10-31T03:49:52;26.97;;;12.93;;
22213;SDS011;11276;43.566;27.824;2022-10-31T03:52:41;27.90;;;12.10;;
22213;SDS011;11276;43.566;27.824;2022-10-31T03:55:20;27.00;;;12.93;;
22213;SDS011;11276;43.566;27.824;2022-10-31T03:57:57;26.20;;;13.80;;
22213;SDS011;11276;43.566;27.824;2022-10-31T04:00:25;34.03;;;15.13;;
22213;SDS011;11276;43.566;27.824;2022-10-31T04:05:22;39.70;;;18.50;;
22213;SDS011;11276;43.566;27.824;2022-10-31T04:07:51;46.80;;;20.57;;
22213;SDS011;11276;43.566;27.824;2022-10-31T04:10:21;47.40;;;20.63;;
22213;SDS011;11276;43.566;27.824;2022-10-31T04:12:54;41.50;;;20.40;;
22213;SDS011;11276;43.566;27.824;2022-10-31T04:15:26;39.50;;;18.60;;
22213;SDS011;11276;43.566;27.824;2022-10-31T04:17:55;31.17;;;16.47;;
22213;SDS011;11276;43.566;27.824;2022-10-31T04:20:35;32.47;;;17.63;;
22213;SDS011;11276;43.566;27.824;2022-10-31T04:23:03;35.73;;;16.27;;
22213;SDS011;11276;43.566;27.824;2022-10-31T04:25:31;31.23;;;14.93;;
22213;SDS011;11276;43.566;27.824;2022-10-31T04:27:58;29.97;;;14.53;;
22213;SDS011;11276;43.566;27.824;2022-10-31T04:30:25;28.07;;;13.83;;
22213;SDS011;11276;43.566;27.824;2022-10-31T04:32:51;21.63;;;12.07;;
22213;SDS011;11276;43.566;27.824;2022-10-31T04:35:18;21.10;;;11.30;;
22213;SDS011;11276;43.566;27.824;2022-10-31T04:37:45;21.67;;;11.17;;
22213;SDS011;11276;43.566;27.824;2022-10-31T04:40:11;21.77;;;12.33;;
22213;SDS011;11276;43.566;27.824;2022-10-31T04:42:38;31.00;;;11.93;;
22213;SDS011;11276;43.566;27.824;2022-10-31T04:45:05;23.43;;;12.30;;
22213;SDS011;11276;43.566;27.824;2022-10-31T04:47:32;16.30;;;11.00;;
22213;SDS011;11276;43.566;27.824;2022-10-31T04:49:59;21.10;;;11.30;;
22213;SDS011;11276;43.566;27.824;2022-10-31T04:52:26;20.37;;;11.40;;
22213;SDS011;11276;43.566;27.824;2022-10-31T04:54:53;17.90;;;10.50;;
22213;SDS011;11276;43.566;27.824;2022-10-31T04:57:20;22.33;;;10.67;;
22213;SDS011;11276;43.566;27.824;2022-10-31T04:59:47;27.30;;;11.27;;
22213;SDS011;11276;43.566;27.824;2022-10-31T05:02:13;16.83;;;10.00;;
22213;SDS011;11276;43.566;27.824;2022-10-31T05:04:40;26.60;;;11.73;;
22213;SDS011;11276;43.566;27.824;2022-10-31T05:07:07;22.90;;;10.57;;
22213;SDS011;11276;43.566;27.824;2022-10-31T05:09:33;20.50;;;11.60;;
22213;SDS011;11276;43.566;27.824;2022-10-31T05:12:00;24.23;;;11.30;;
22213;SDS011;11276;43.566;27.824;2022-10-31T05:14:27;19.10;;;11.00;;
22213;SDS011;11276;43.566;27.824;2022-10-31T05:16:53;29.07;;;12.97;;
22213;SDS011;11276;43.566;27.824;2022-10-31T05:19:20;26.80;;;12.40;;
22213;SDS011;11276;43.566;27.824;2022-10-31T05:21:46;29.93;;;12.43;;
22213;SDS011;11276;43.566;27.824;2022-10-31T05:24:13;28.23;;;11.73;;
22213;SDS011;11276;43.566;27.824;2022-10-31T05:26:40;34.87;;;13.27;;
22213;SDS011;11276;43.566;27.824;2022-10-31T05:29:07;27.10;;;13.50;;
22213;SDS011;11276;43.566;27.824;2022-10-31T05:31:33;28.30;;;13.57;;
22213;SDS011;11276;43.566;27.824;2022-10-31T05:34:00;25.63;;;12.33;;
22213;SDS011;11276;43.566;27.824;2022-10-31T05:36:27;27.63;;;12.33;;
22213;SDS011;11276;43.566;27.824;2022-10-31T05:38:53;29.73;;;12.23;;
22213;SDS011;11276;43.566;27.824;2022-10-31T05:41:20;20.73;;;11.97;;
22213;SDS011;11276;43.566;27.824;2022-10-31T05:43:47;23.37;;;12.00;;
22213;SDS011;11276;43.566;27.824;2022-10-31T05:46:14;29.27;;;12.20;;
22213;SDS011;11276;43.566;27.824;2022-10-31T05:48:40;25.73;;;13.47;;
22213;SDS011;11276;43.566;27.824;2022-10-31T05:51:07;28.83;;;14.10;;
22213;SDS011;11276;43.566;27.824;2022-10-31T05:53:33;26.73;;;13.13;;
22213;SDS011;11276;43.566;27.824;2022-10-31T05:56:00;20.10;;;12.47;;
22213;SDS011;11276;43.566;27.824;2022-10-31T05:58:27;26.47;;;13.67;;
22213;SDS011;11276;43.566;27.824;2022-10-31T06:00:53;29.17;;;13.50;;
22213;SDS011;11276;43.566;27.824;2022-10-31T06:03:20;38.23;;;17.70;;
22213;SDS011;11276;43.566;27.824;2022-10-31T06:05:47;29.90;;;14.77;;
22213;SDS011;11276;43.566;27.824;2022-10-31T06:08:14;42.97;;;18.13;;
22213;SDS011;11276;43.566;27.824;2022-10-31T06:10:40;28.67;;;14.70;;
22213;SDS011;11276;43.566;27.824;2022-10-31T06:13:07;35.63;;;15.93;;
22213;SDS011;11276;43.566;27.824;2022-10-31T06:15:34;41.27;;;15.50;;
22213;SDS011;11276;43.566;27.824;2022-10-31T06:18:01;44.70;;;15.60;;
22213;SDS011;11276;43.566;27.824;2022-10-31T06:20:30;29.37;;;14.00;;
22213;SDS011;11276;43.566;27.824;2022-10-31T06:22:57;36.20;;;14.37;;
22213;SDS011;11276;43.566;27.824;2022-10-31T06:25:24;26.33;;;12.53;;
22213;SDS011;11276;43.566;27.824;2022-10-31T06:27:51;26.97;;;13.10;;
22213;SDS011;11276;43.566;27.824;2022-10-31T06:30:18;29.10;;;14.47;;
22213;SDS011;11276;43.566;27.824;2022-10-31T06:32:45;37.07;;;14.40;;
22213;SDS011;11276;43.566;27.824;2022-10-31T06:35:11;25.60;;;14.37;;
22213;SDS011;11276;43.566;27.824;2022-10-31T06:37:38;26.43;;;13.37;;
22213;SDS011;11276;43.566;27.824;2022-10-31T06:40:05;27.77;;;13.10;;
22213;SDS011;11276;43.566;27.824;2022-10-31T06:42:32;28.67;;;14.40;;
22213;SDS011;11276;43.566;27.824;2022-10-31T06:44:59;26.90;;;12.70;;
22213;SDS011;11276;43.566;27.824;2022-10-31T06:47:25;30.77;;;12.80;;
22213;SDS011;11276;43.566;27.824;2022-10-31T06:49:52;31.37;;;12.40;;
22213;SDS011;11276;43.566;27.824;2022-10-31T06:52:19;31.80;;;12.97;;
22213;SDS011;11276;43.566;27.824;2022-10-31T06:54:46;18.13;;;11.17;;
22213;SDS011;11276;43.566;27.824;2022-10-31T06:57:12;17.70;;;10.77;;
22213;SDS011;11276;43.566;27.824;2022-10-31T06:59:39;19.70;;;12.17;;
22213;SDS011;11276;43.566;27.824;2022-10-31T07:02:07;30.63;;;12.87;;
22213;SDS011;11276;43.566;27.824;2022-10-31T07:04:35;33.23;;;14.50;;
22213;SDS011;11276;43.566;27.824;2022-10-31T07:07:02;28.43;;;12.03;;
22213;SDS011;11276;43.566;27.824;2022-10-31T07:09:29;22.63;;;12.47;;
22213;SDS011;11276;43.566;27.824;2022-10-31T07:11:56;18.53;;;11.63;;
22213;SDS011;11276;43.566;27.824;2022-10-31T07:14:22;28.00;;;11.47;;
22213;SDS011;11276;43.566;27.824;2022-10-31T07:16:50;24.87;;;12.20;;
22213;SDS011;11276;43.566;27.824;2022-10-31T07:19:17;19.03;;;10.50;;
22213;SDS011;11276;43.566;27.824;2022-10-31T07:21:44;22.97;;;10.77;;
22213;SDS011;11276;43.566;27.824;2022-10-31T07:24:10;23.07;;;11.93;;
22213;SDS011;11276;43.566;27.824;2022-10-31T07:26:37;22.40;;;11.77;;
22213;SDS011;11276;43.566;27.824;2022-10-31T07:29:04;22.20;;;11.77;;
22213;SDS011;11276;43.566;27.824;2022-10-31T07:31:31;25.40;;;11.93;;
22213;SDS011;11276;43.566;27.824;2022-10-31T07:33:58;18.50;;;10.90;;
22213;SDS011;11276;43.566;27.824;2022-10-31T07:36:24;24.93;;;12.67;;
22213;SDS011;11276;43.566;27.824;2022-10-31T07:38:51;26.37;;;11.30;;
22213;SDS011;11276;43.566;27.824;2022-10-31T07:41:18;15.30;;;7.43;;
22213;SDS011;11276;43.566;27.824;2022-10-31T07:43:45;15.13;;;8.80;;
22213;SDS011;11276;43.566;27.824;2022-10-31T07:46:11;10.93;;;8.33;;
22213;SDS011;11276;43.566;27.824;2022-10-31T07:48:38;12.63;;;8.00;;
22213;SDS011;11276;43.566;27.824;2022-10-31T07:51:05;8.53;;;7.03;;
22213;SDS011;11276;43.566;27.824;2022-10-31T07:53:33;13.47;;;8.57;;
22213;SDS011;11276;43.566;27.824;2022-10-31T07:55:59;10.60;;;7.97;;
22213;SDS011;11276;43.566;27.824;2022-10-31T07:58:26;18.73;;;6.87;;
22213;SDS011;11276;43.566;27.824;2022-10-31T08:00:53;7.20;;;4.50;;
22213;SDS011;11276;43.566;27.824;2022-10-31T08:03:19;6.33;;;3.97;;
22213;SDS011;11276;43.566;27.824;2022-10-31T08:05:46;8.70;;;4.90;;
22213;SDS011;11276;43.566;27.824;2022-10-31T08:08:13;7.20;;;3.37;;
22213;SDS011;11276;43.566;27.824;2022-10-31T08:10:41;6.37;;;4.20;;
22213;SDS011;11276;43.566;27.824;2022-10-31T08:13:12;5.03;;;4.00;;
22213;SDS011;11276;43.566;27.824;2022-10-31T08:15:40;7.57;;;4.13;;
22213;SDS011;11276;43.566;27.824;2022-10-31T08:18:12;7.63;;;4.20;;
22213;SDS011;11276;43.566;27.824;2022-10-31T08:20:40;8.93;;;4.33;;
22213;SDS011;11276;43.566;27.824;2022-10-31T08:23:08;6.47;;;4.03;;
22213;SDS011;11276;43.566;27.824;2022-10-31T08:25:35;4.33;;;3.93;;
22213;SDS011;11276;43.566;27.824;2022-10-31T08:28:03;6.70;;;3.73;;
22213;SDS011;11276;43.566;27.824;2022-10-31T08:30:32;10.73;;;3.90;;
22213;SDS011;11276;43.566;27.824;2022-10-31T08:35:31;5.33;;;3.77;;
22213;SDS011;11276;43.566;27.824;2022-10-31T08:37:59;6.40;;;4.17;;
22213;SDS011;11276;43.566;27.824;2022-10-31T08:40:27;27.20;;;6.40;;
22213;SDS011;11276;43.566;27.824;2022-10-31T08:42:58;16.77;;;5.07;;
22213;SDS011;11276;43.566;27.824;2022-10-31T08:45:27;21.87;;;5.83;;
22213;SDS011;11276;43.566;27.824;2022-10-31T08:47:58;15.67;;;5.57;;
22213;SDS011;11276;43.566;27.824;2022-10-31T08:50:26;8.00;;;4.83;;
22213;SDS011;11276;43.566;27.824;2022-10-31T08:52:59;6.87;;;4.40;;
22213;SDS011;11276;43.566;27.824;2022-10-31T08:55:32;8.07;;;4.40;;
22213;SDS011;11276;43.566;27.824;2022-10-31T08:58:02;8.40;;;4.37;;
22213;SDS011;11276;43.566;27.824;2022-10-31T09:00:30;7.70;;;4.43;;
22213;SDS011;11276;43.566;27.824;2022-10-31T09:02:58;10.00;;;4.30;;
22213;SDS011;11276;43.566;27.824;2022-10-31T09:05:27;6.27;;;4.40;;
22213;SDS011;11276;43.566;27.824;2022-10-31T09:07:57;13.00;;;5.40;;
22213;SDS011;11276;43.566;27.824;2022-10-31T09:10:25;7.00;;;5.00;;
22213;SDS011;11276;43.566;27.824;2022-10-31T09:13:00;10.30;;;5.03;;
22213;SDS011;11276;43.566;27.824;2022-10-31T09:15:30;7.77;;;4.37;;
22213;SDS011;11276;43.566;27.824;2022-10-31T09:17:57;12.80;;;4.30;;
22213;SDS011;11276;43.566;27.824;2022-10-31T09:20:24;7.13;;;4.40;;
22213;SDS011;11276;43.566;27.824;2022-10-31T09:22:57;6.97;;;4.47;;
22213;SDS011;11276;43.566;27.824;2022-10-31T09:25:25;11.73;;;5.67;;
22213;SDS011;11276;43.566;27.824;2022-10-31T09:27:55;8.53;;;5.10;;
22213;SDS011;11276;43.566;27.824;2022-10-31T09:30:26;14.23;;;4.60;;
22213;SDS011;11276;43.566;27.824;2022-10-31T09:32:57;10.70;;;4.30;;
22213;SDS011;11276;43.566;27.824;2022-10-31T09:35:26;12.00;;;4.00;;
22213;SDS011;11276;43.566;27.824;2022-10-31T09:37:57;7.33;;;4.13;;
22213;SDS011;11276;43.566;27.824;2022-10-31T09:40:44;9.40;;;4.70;;
22213;SDS011;11276;43.566;27.824;2022-10-31T09:51:05;5.30;;;3.90;;
22213;SDS011;11276;43.566;27.824;2022-10-31T09:53:46;13.37;;;4.50;;
22213;SDS011;11276;43.566;27.824;2022-10-31T09:56:26;8.17;;;3.80;;
22213;SDS011;11276;43.566;27.824;2022-10-31T09:58:57;5.67;;;3.70;;
22213;SDS011;11276;43.566;27.824;2022-10-31T10:01:31;9.17;;;4.17;;
22213;SDS011;11276;43.566;27.824;2022-10-31T10:04:17;5.93;;;3.87;;
22213;SDS011;11276;43.566;27.824;2022-10-31T10:06:45;10.30;;;4.10;;
22213;SDS011;11276;43.566;27.824;2022-10-31T10:09:14;8.67;;;4.17;;
22213;SDS011;11276;43.566;27.824;2022-10-31T10:17:21;9.67;;;4.20;;
22213;SDS011;11276;43.566;27.824;2022-10-31T10:26:29;7.70;;;3.80;;
22213;SDS011;11276;43.566;27.824;2022-10-31T10:31:54;16.00;;;4.10;;
22213;SDS011;11276;43.566;27.824;2022-10-31T10:34:29;7.33;;;3.47;;
22213;SDS011;11276;43.566;27.824;2022-10-31T10:39:47;10.53;;;3.10;;
22213;SDS011;11276;43.566;27.824;2022-10-31T10:42:18;6.23;;;3.93;;
22213;SDS011;11276;43.566;27.824;2022-10-31T10:45:16;5.87;;;3.93;;
22213;SDS011;11276;43.566;27.824;2022-10-31T10:48:05;10.50;;;3.73;;
22213;SDS011;11276;43.566;27.824;2022-10-31T10:50:55;10.60;;;3.30;;
22213;SDS011;11276;43.566;27.824;2022-10-31T10:53:37;4.90;;;3.10;;
22213;SDS011;11276;43.566;27.824;2022-10-31T10:59:26;10.90;;;3.43;;
22213;SDS011;11276;43.566;27.824;2022-10-31T11:01:53;7.33;;;4.20;;
22213;SDS011;11276;43.566;27.824;2022-10-31T11:07:03;5.87;;;2.97;;
22213;SDS011;11276;43.566;27.824;2022-10-31T11:09:34;5.57;;;2.83;;
22213;SDS011;11276;43.566;27.824;2022-10-31T11:12:16;9.23;;;3.33;;
22213;SDS011;11276;43.566;27.824;2022-10-31T11:14:59;4.10;;;2.87;;
22213;SDS011;11276;43.566;27.824;2022-10-31T11:17:37;3.27;;;2.47;;
22213;SDS011;11276;43.566;27.824;2022-10-31T11:20:28;4.80;;;3.17;;
22213;SDS011;11276;43.566;27.824;2022-10-31T11:23:03;5.87;;;2.90;;
22213;SDS011;11276;43.566;27.824;2022-10-31T11:25:49;6.70;;;3.03;;
22213;SDS011;11276;43.566;27.824;2022-10-31T11:28:23;5.07;;;2.77;;
22213;SDS011;11276;43.566;27.824;2022-10-31T11:30:55;4.73;;;2.80;;
22213;SDS011;11276;43.566;27.824;2022-10-31T11:35:56;7.73;;;2.70;;
22213;SDS011;11276;43.566;27.824;2022-10-31T11:38:26;7.23;;;3.17;;
22213;SDS011;11276;43.566;27.824;2022-10-31T11:41:16;7.60;;;3.40;;
22213;SDS011;11276;43.566;27.824;2022-10-31T11:43:46;4.80;;;2.73;;
22213;SDS011;11276;43.566;27.824;2022-10-31T11:46:21;12.70;;;3.80;;
22213;SDS011;11276;43.566;27.824;2022-10-31T11:49:16;4.90;;;3.00;;
22213;SDS011;11276;43.566;27.824;2022-10-31T11:51:47;6.77;;;3.87;;
22213;SDS011;11276;43.566;27.824;2022-10-31T11:54:33;6.53;;;3.57;;
22213;SDS011;11276;43.566;27.824;2022-10-31T12:00:23;8.37;;;3.90;;
22213;SDS011;11276;43.566;27.824;2022-10-31T12:06:31;9.90;;;3.73;;
22213;SDS011;11276;43.566;27.824;2022-10-31T12:08:52;9.13;;;4.40;;
22213;SDS011;11276;43.566;27.824;2022-10-31T12:16:53;7.70;;;3.87;;
22213;SDS011;11276;43.566;27.824;2022-10-31T12:19:32;6.00;;;2.70;;
22213;SDS011;11276;43.566;27.824;2022-10-31T12:22:21;22.43;;;3.50;;
22213;SDS011;11276;43.566;27.824;2022-10-31T12:39:40;6.80;;;2.70;;
22213;SDS011;11276;43.566;27.824;2022-10-31T12:42:35;4.97;;;3.30;;
22213;SDS011;11276;43.566;27.824;2022-10-31T12:48:00;5.60;;;2.87;;
22213;SDS011;11276;43.566;27.824;2022-10-31T12:50:50;10.13;;;3.43;;
22213;SDS011;11276;43.566;27.824;2022-10-31T12:56:10;15.07;;;4.17;;
22213;SDS011;11276;43.566;27.824;2022-10-31T12:58:52;11.70;;;3.20;;
22213;SDS011;11276;43.566;27.824;2022-10-31T13:02:04;6.87;;;3.67;;
22213;SDS011;11276;43.566;27.824;2022-10-31T13:04:42;5.00;;;3.30;;
22213;SDS011;11276;43.566;27.824;2022-10-31T13:07:15;6.37;;;3.40;;
22213;SDS011;11276;43.566;27.824;2022-10-31T13:12:23;5.83;;;3.03;;
22213;SDS011;11276;43.566;27.824;2022-10-31T13:15:39;8.40;;;3.07;;
22213;SDS011;11276;43.566;27.824;2022-10-31T13:17:49;7.80;;;3.20;;
22213;SDS011;11276;43.566;27.824;2022-10-31T13:20:23;11.70;;;4.07;;
22213;SDS011;11276;43.566;27.824;2022-10-31T13:22:56;8.90;;;3.50;;
22213;SDS011;11276;43.566;27.824;2022-10-31T13:25:45;4.53;;;2.60;;
22213;SDS011;11276;43.566;27.824;2022-10-31T13:30:51;6.90;;;3.13;;
22213;SDS011;11276;43.566;27.824;2022-10-31T13:33:21;7.30;;;3.70;;
22213;SDS011;11276;43.566;27.824;2022-10-31T13:39:09;6.90;;;3.23;;
22213;SDS011;11276;43.566;27.824;2022-10-31T13:41:41;5.33;;;3.30;;
22213;SDS011;11276;43.566;27.824;2022-10-31T13:44:25;6.33;;;4.00;;
22213;SDS011;11276;43.566;27.824;2022-10-31T13:46:54;9.03;;;4.10;;
22213;SDS011;11276;43.566;27.824;2022-10-31T13:54:37;4.27;;;3.27;;
22213;SDS011;11276;43.566;27.824;2022-10-31T13:57:06;7.40;;;3.40;;
22213;SDS011;11276;43.566;27.824;2022-10-31T13:59:46;12.07;;;3.90;;
22213;SDS011;11276;43.566;27.824;2022-10-31T14:02:18;5.30;;;3.43;;
22213;SDS011;11276;43.566;27.824;2022-10-31T14:07:46;11.90;;;3.90;;
22213;SDS011;11276;43.566;27.824;2022-10-31T14:12:53;9.27;;;3.60;;
22213;SDS011;11276;43.566;27.824;2022-10-31T14:15:30;6.07;;;3.80;;
22213;SDS011;11276;43.566;27.824;2022-10-31T14:17:58;8.10;;;3.93;;
22213;SDS011;11276;43.566;27.824;2022-10-31T14:20:33;6.90;;;4.50;;
22213;SDS011;11276;43.566;27.824;2022-10-31T14:23:39;8.30;;;4.37;;
22213;SDS011;11276;43.566;27.824;2022-10-31T14:28:48;11.17;;;4.10;;
22213;SDS011;11276;43.566;27.824;2022-10-31T14:34:05;6.00;;;4.07;;
22213;SDS011;11276;43.566;27.824;2022-10-31T14:36:55;8.20;;;4.00;;
22213;SDS011;11276;43.566;27.824;2022-10-31T14:52:47;22.10;;;5.53;;
22213;SDS011;11276;43.566;27.824;2022-10-31T14:55:16;14.70;;;4.93;;
22213;SDS011;11276;43.566;27.824;2022-10-31T14:57:52;12.63;;;4.80;;
22213;SDS011;11276;43.566;27.824;2022-10-31T15:00:23;6.57;;;4.73;;
22213;SDS011;11276;43.566;27.824;2022-10-31T15:05:40;9.93;;;5.50;;
22213;SDS011;11276;43.566;27.824;2022-10-31T15:08:29;13.43;;;5.97;;
22213;SDS011;11276;43.566;27.824;2022-10-31T15:10:58;7.83;;;5.43;;
22213;SDS011;11276;43.566;27.824;2022-10-31T15:13:29;10.00;;;5.37;;
22213;SDS011;11276;43.566;27.824;2022-10-31T15:15:56;7.60;;;4.63;;
22213;SDS011;11276;43.566;27.824;2022-10-31T15:18:25;13.03;;;4.80;;
22213;SDS011;11276;43.566;27.824;2022-10-31T15:20:54;8.13;;;4.67;;
22213;SDS011;11276;43.566;27.824;2022-10-31T15:23:26;15.10;;;4.50;;
22213;SDS011;11276;43.566;27.824;2022-10-31T15:26:01;9.87;;;4.80;;
22213;SDS011;11276;43.566;27.824;2022-10-31T15:28:30;13.80;;;5.60;;
22213;SDS011;11276;43.566;27.824;2022-10-31T15:30:58;13.63;;;4.50;;
22213;SDS011;11276;43.566;27.824;2022-10-31T15:33:28;12.00;;;5.17;;
22213;SDS011;11276;43.566;27.824;2022-10-31T15:36:02;25.37;;;6.10;;
22213;SDS011;11276;43.566;27.824;2022-10-31T15:38:29;21.67;;;6.90;;
22213;SDS011;11276;43.566;27.824;2022-10-31T15:41:00;21.47;;;6.60;;
22213;SDS011;11276;43.566;27.824;2022-10-31T15:43:34;10.80;;;5.77;;
22213;SDS011;11276;43.566;27.824;2022-10-31T15:46:04;19.03;;;6.60;;
22213;SDS011;11276;43.566;27.824;2022-10-31T15:48:35;13.77;;;7.27;;
22213;SDS011;11276;43.566;27.824;2022-10-31T15:51:01;16.53;;;6.20;;
22213;SDS011;11276;43.566;27.824;2022-10-31T15:53:32;29.13;;;7.70;;
22213;SDS011;11276;43.566;27.824;2022-10-31T15:56:10;32.87;;;9.43;;
22213;SDS011;11276;43.566;27.824;2022-10-31T15:58:43;20.97;;;9.00;;
22213;SDS011;11276;43.566;27.824;2022-10-31T16:01:23;30.23;;;10.27;;
22213;SDS011;11276;43.566;27.824;2022-10-31T16:07:12;36.13;;;10.23;;
22213;SDS011;11276;43.566;27.824;2022-10-31T16:10:02;29.73;;;10.90;;
22213;SDS011;11276;43.566;27.824;2022-10-31T16:12:37;54.50;;;10.93;;
22213;SDS011;11276;43.566;27.824;2022-10-31T16:15:14;24.47;;;10.33;;
22213;SDS011;11276;43.566;27.824;2022-10-31T16:17:43;42.87;;;13.73;;
22213;SDS011;11276;43.566;27.824;2022-10-31T16:20:19;41.87;;;12.83;;
22213;SDS011;11276;43.566;27.824;2022-10-31T16:22:49;42.93;;;13.13;;
22213;SDS011;11276;43.566;27.824;2022-10-31T16:25:32;52.03;;;15.43;;
22213;SDS011;11276;43.566;27.824;2022-10-31T16:28:03;32.83;;;13.40;;
22213;SDS011;11276;43.566;27.824;2022-10-31T16:30:41;33.33;;;13.80;;
22213;SDS011;11276;43.566;27.824;2022-10-31T16:33:29;51.40;;;15.03;;
22213;SDS011;11276;43.566;27.824;2022-10-31T16:39:01;53.20;;;15.67;;
22213;SDS011;11276;43.566;27.824;2022-10-31T16:41:28;39.73;;;14.20;;
22213;SDS011;11276;43.566;27.824;2022-10-31T16:43:55;33.03;;;13.20;;
22213;SDS011;11276;43.566;27.824;2022-10-31T16:46:22;47.97;;;14.93;;
22213;SDS011;11276;43.566;27.824;2022-10-31T16:48:51;40.93;;;14.50;;
22213;SDS011;11276;43.566;27.824;2022-10-31T16:51:18;26.20;;;13.57;;
22213;SDS011;11276;43.566;27.824;2022-10-31T16:53:45;44.10;;;14.90;;
22213;SDS011;11276;43.566;27.824;2022-10-31T16:56:21;50.07;;;15.10;;
22213;SDS011;11276;43.566;27.824;2022-10-31T16:58:53;33.70;;;13.20;;
22213;SDS011;11276;43.566;27.824;2022-10-31T17:01:20;32.70;;;13.40;;
22213;SDS011;11276;43.566;27.824;2022-10-31T17:03:47;32.60;;;13.30;;
22213;SDS011;11276;43.566;27.824;2022-10-31T17:06:14;27.53;;;12.07;;
22213;SDS011;11276;43.566;27.824;2022-10-31T17:08:41;30.50;;;11.30;;
22213;SDS011;11276;43.566;27.824;2022-10-31T17:11:08;37.57;;;11.90;;
22213;SDS011;11276;43.566;27.824;2022-10-31T17:13:43;38.33;;;12.43;;